createdAt,value
2022-11-16T00:02:13.612Z,5.30
2022-11-16T00:04:42.337Z,5.29
2022-11-16T00:07:11.344Z,5.31
2022-11-16T00:09:39.915Z,5.30
2022-11-16T00:12:11.260Z,5.32
2022-11-16T00:14:39.837Z,5.31
2022-11-16T00:17:08.396Z,5.32
2022-11-16T00:19:36.701Z,5.32
2022-11-16T00:22:05.661Z,5.34
2022-11-16T00:24:34.256Z,5.36
2022-11-16T00:27:02.657Z,5.36
2022-11-16T00:29:30.999Z,5.35
2022-11-16T00:31:59.414Z,5.33
2022-11-16T00:34:28.757Z,5.33
2022-11-16T00:36:57.196Z,5.34
2022-11-16T00:39:25.678Z,5.34
2022-11-16T00:41:54.160Z,5.36
2022-11-16T00:44:22.642Z,5.37
2022-11-16T00:46:51.023Z,5.36
2022-11-16T00:49:19.504Z,5.34
2022-11-16T00:51:48.191Z,5.33
2022-11-16T00:54:16.617Z,5.37
2022-11-16T00:56:45.155Z,5.38
2022-11-16T00:59:13.943Z,5.39
2022-11-16T01:01:43.587Z,5.38
2022-11-16T01:04:12.034Z,5.41
2022-11-16T01:06:40.720Z,5.41
2022-11-16T01:09:09.040Z,5.42
2022-11-16T01:11:56.319Z,5.43
2022-11-16T01:14:24.950Z,5.43
2022-11-16T01:16:53.488Z,5.46
2022-11-16T01:19:22.379Z,5.48
2022-11-16T01:21:50.964Z,5.49
2022-11-16T01:24:19.345Z,5.47
2022-11-16T01:26:47.826Z,5.50
2022-11-16T01:29:16.617Z,5.49
2022-11-16T01:31:50.524Z,5.51
2022-11-16T01:34:19.210Z,5.51
2022-11-16T01:36:47.898Z,5.51
2022-11-16T01:39:16.894Z,5.51
2022-11-16T01:41:50.712Z,5.53
2022-11-16T01:44:34.642Z,5.52
2022-11-16T01:47:11.556Z,5.53
2022-11-16T01:49:43.380Z,5.55
2022-11-16T01:52:14.934Z,5.55
2022-11-16T01:54:45.977Z,5.56
2022-11-16T01:57:16.507Z,5.55
2022-11-16T01:59:55.740Z,5.56
2022-11-16T02:02:25.763Z,5.57
2022-11-16T02:04:55.221Z,5.55
2022-11-16T02:08:01.742Z,5.55
2022-11-16T02:10:30.592Z,5.57
2022-11-16T02:13:06.647Z,5.56
2022-11-16T02:15:45.616Z,5.57
2022-11-16T02:18:35.890Z,5.57
2022-11-16T02:21:18.110Z,5.57
2022-11-16T02:24:05.434Z,5.56
2022-11-16T02:26:51.018Z,5.56
2022-11-16T02:29:19.191Z,5.55
2022-11-16T02:32:05.248Z,5.56
2022-11-16T02:34:42.418Z,5.53
2022-11-16T02:37:12.694Z,5.53
2022-11-16T02:39:42.136Z,5.55
2022-11-16T02:42:13.884Z,5.59
2022-11-16T02:44:45.308Z,5.57
2022-11-16T02:47:17.273Z,5.59
2022-11-16T02:49:49.745Z,5.58
2022-11-16T02:52:19.354Z,5.58
2022-11-16T02:54:49.426Z,5.56
2022-11-16T02:57:37.414Z,5.56
2022-11-16T03:00:16.236Z,5.56
2022-11-16T03:02:44.922Z,5.55
2022-11-16T03:05:17.749Z,5.57
2022-11-16T03:07:55.516Z,5.55
2022-11-16T03:10:44.163Z,5.58
2022-11-16T03:13:15.206Z,5.57
2022-11-16T03:15:44.348Z,5.59
2022-11-16T03:18:15.034Z,5.58
2022-11-16T03:20:44.744Z,5.56
2022-11-16T03:23:14.457Z,5.56
2022-11-16T03:25:47.720Z,5.56
2022-11-16T03:28:22.274Z,5.55
2022-11-16T03:31:11.814Z,5.56
2022-11-16T03:33:43.404Z,5.59
2022-11-16T03:36:16.187Z,5.58
2022-11-16T03:38:46.307Z,5.60
2022-11-16T03:41:15.132Z,5.58
2022-11-16T03:43:44.398Z,5.57
2022-11-16T03:46:14.212Z,5.57
2022-11-16T03:48:42.793Z,5.59
2022-11-16T03:51:22.029Z,5.59
2022-11-16T03:53:50.304Z,5.58
2022-11-16T03:56:20.018Z,5.53
2022-11-16T03:58:49.249Z,5.54
2022-11-16T04:01:18.863Z,5.51
2022-11-16T04:03:48.123Z,5.52
2022-11-16T04:06:36.266Z,5.55
2022-11-16T04:09:25.329Z,5.54
2022-11-16T04:12:12.653Z,5.54
2022-11-16T04:14:59.981Z,5.53
2022-11-16T04:17:48.119Z,5.54
2022-11-16T04:20:35.341Z,5.55
2022-11-16T04:23:26.215Z,5.56
2022-11-16T04:25:55.037Z,5.56
2022-11-16T04:28:29.731Z,5.56
2022-11-16T04:31:22.618Z,5.55
2022-11-16T04:34:20.694Z,5.55
2022-11-16T04:37:10.786Z,5.55
2022-11-16T04:39:39.778Z,5.55
2022-11-16T04:42:16.246Z,5.55
2022-11-16T04:45:05.515Z,5.57
2022-11-16T04:47:53.413Z,5.57
2022-11-16T04:50:23.779Z,5.57
2022-11-16T04:52:52.775Z,5.58
2022-11-16T04:55:22.281Z,5.57
2022-11-16T04:57:51.374Z,5.58
2022-11-16T05:00:20.268Z,5.59
2022-11-16T05:02:49.263Z,5.59
2022-11-16T05:05:18.051Z,5.61
2022-11-16T05:07:47.146Z,5.60
2022-11-16T05:10:21.503Z,5.61
2022-11-16T05:12:50.388Z,5.64
2022-11-16T05:15:20.066Z,5.65
2022-11-16T05:17:51.529Z,5.65
2022-11-16T05:20:41.369Z,5.64
2022-11-16T05:23:30.030Z,5.67
2022-11-16T05:26:01.097Z,5.69
2022-11-16T05:28:29.988Z,5.69
2022-11-16T05:30:58.880Z,5.69
2022-11-16T05:33:28.592Z,5.71
2022-11-16T05:35:57.121Z,5.72
2022-11-16T05:38:25.657Z,5.70
2022-11-16T05:40:56.400Z,5.71
2022-11-16T05:43:25.184Z,5.72
2022-11-16T05:46:09.740Z,5.71
2022-11-16T05:48:39.042Z,5.73
2022-11-16T05:51:07.627Z,5.71
2022-11-16T05:53:36.416Z,5.74
2022-11-16T05:56:06.504Z,5.75
2022-11-16T05:58:37.221Z,5.75
2022-11-16T06:01:07.084Z,5.75
2022-11-16T06:03:36.645Z,5.77
2022-11-16T06:06:05.683Z,5.74
2022-11-16T06:08:34.773Z,5.77
2022-11-16T06:11:06.030Z,5.78
2022-11-16T06:13:35.947Z,5.80
2022-11-16T06:16:05.345Z,5.82
2022-11-16T06:18:37.373Z,5.81
2022-11-16T06:21:06.611Z,5.81
2022-11-16T06:23:34.868Z,5.84
2022-11-16T06:26:04.877Z,5.85
2022-11-16T06:28:34.473Z,5.87
2022-11-16T06:31:03.545Z,5.90
2022-11-16T06:33:34.346Z,5.92
2022-11-16T06:36:04.467Z,5.92
2022-11-16T06:38:33.618Z,5.96
2022-11-16T06:41:02.860Z,5.99
2022-11-16T06:43:31.855Z,6.00
2022-11-16T06:46:01.467Z,6.03
2022-11-16T06:48:30.970Z,6.02
2022-11-16T06:50:59.761Z,6.05
2022-11-16T06:53:29.567Z,6.07
2022-11-16T06:56:04.509Z,6.12
2022-11-16T06:58:34.328Z,6.15
2022-11-16T07:01:07.887Z,6.14
2022-11-16T07:03:37.220Z,6.15
2022-11-16T07:06:13.353Z,6.15
2022-11-16T07:08:44.015Z,6.21
2022-11-16T07:11:13.215Z,6.29
2022-11-16T07:13:41.802Z,6.33
2022-11-16T07:16:11.813Z,6.41
2022-11-16T07:18:44.964Z,6.43
2022-11-16T07:21:14.412Z,6.43
2022-11-16T07:23:43.201Z,6.45
2022-11-16T07:26:12.977Z,6.43
2022-11-16T07:29:10.780Z,6.42
2022-11-16T07:31:42.846Z,6.39
2022-11-16T07:34:30.373Z,6.39
2022-11-16T07:37:07.059Z,6.34
2022-11-16T07:39:35.639Z,6.31
2022-11-16T07:42:11.887Z,6.31
2022-11-16T07:45:16.013Z,6.30
2022-11-16T07:47:53.612Z,6.26
2022-11-16T07:50:42.707Z,6.28
2022-11-16T07:53:11.773Z,6.28
2022-11-16T07:55:41.084Z,6.28
2022-11-16T07:58:10.066Z,6.32
2022-11-16T08:00:39.229Z,6.37
2022-11-16T08:03:13.172Z,6.37
2022-11-16T08:05:42.340Z,6.43
2022-11-16T08:08:11.466Z,6.50
2022-11-16T08:10:39.849Z,6.57
2022-11-16T08:13:09.149Z,6.58
2022-11-16T08:15:37.629Z,6.60
2022-11-16T08:18:08.777Z,6.58
2022-11-16T08:20:37.475Z,6.59
2022-11-16T08:23:05.941Z,6.62
2022-11-16T08:25:35.550Z,6.63
2022-11-16T08:28:04.441Z,6.67
2022-11-16T08:30:34.049Z,6.68
2022-11-16T08:33:02.838Z,6.71
2022-11-16T08:35:31.524Z,6.76
2022-11-16T08:38:00.317Z,6.78
2022-11-16T08:40:29.428Z,6.81
2022-11-16T08:42:58.507Z,6.84
2022-11-16T08:45:27.714Z,6.89
2022-11-16T08:48:03.320Z,6.91
2022-11-16T08:50:44.239Z,6.95
2022-11-16T08:53:21.731Z,7.03
2022-11-16T08:55:50.919Z,7.07
2022-11-16T08:58:19.401Z,7.09
2022-11-16T09:00:47.783Z,7.13
2022-11-16T09:03:16.877Z,7.14
2022-11-16T09:05:47.408Z,7.18
2022-11-16T09:08:15.687Z,7.21
2022-11-16T09:10:44.676Z,7.27
2022-11-16T09:13:13.057Z,7.29
2022-11-16T09:15:41.434Z,7.27
2022-11-16T09:18:10.225Z,7.26
2022-11-16T09:20:38.706Z,7.29
2022-11-16T09:23:06.983Z,7.28
2022-11-16T09:25:35.873Z,7.25
2022-11-16T09:28:04.358Z,7.24
2022-11-16T09:30:32.735Z,7.28
2022-11-16T09:33:01.401Z,7.24
2022-11-16T09:35:29.700Z,7.19
2022-11-16T09:37:58.184Z,7.26
2022-11-16T09:40:33.588Z,7.34
2022-11-16T09:43:20.335Z,7.33
2022-11-16T09:46:08.272Z,7.41
2022-11-16T09:48:37.736Z,7.41
2022-11-16T09:51:08.513Z,7.51
2022-11-16T09:53:40.067Z,7.58
2022-11-16T09:56:17.847Z,7.62
2022-11-16T09:58:55.363Z,7.60
2022-11-16T10:01:28.772Z,7.65
2022-11-16T10:04:03.795Z,7.71
2022-11-16T10:06:49.988Z,7.79
2022-11-16T10:09:18.676Z,7.88
2022-11-16T10:11:59.550Z,7.95
2022-11-16T10:14:47.085Z,8.02
2022-11-16T10:17:18.632Z,8.10
2022-11-16T10:19:47.012Z,8.17
2022-11-16T10:22:21.946Z,8.22
2022-11-16T10:25:01.078Z,8.25
2022-11-16T10:27:48.811Z,8.27
2022-11-16T10:30:17.323Z,8.23
2022-11-16T10:32:45.876Z,8.22
2022-11-16T10:35:17.087Z,8.17
2022-11-16T10:37:50.204Z,8.08
2022-11-16T10:40:20.841Z,8.04
2022-11-16T10:42:58.032Z,8.12
2022-11-16T10:45:34.807Z,8.16
2022-11-16T10:48:13.036Z,8.23
2022-11-16T10:50:44.367Z,8.19
2022-11-16T10:53:25.962Z,8.29
2022-11-16T10:56:14.612Z,8.36
2022-11-16T10:58:50.777Z,8.42
2022-11-16T11:01:39.018Z,8.49
2022-11-16T11:04:17.125Z,8.51
2022-11-16T11:06:46.629Z,8.75
2022-11-16T11:09:16.645Z,8.92
2022-11-16T11:12:15.849Z,8.94
2022-11-16T11:14:58.198Z,8.83
2022-11-16T11:17:27.047Z,8.77
2022-11-16T11:20:15.445Z,8.75
2022-11-16T11:22:55.364Z,8.75
2022-11-16T11:25:25.722Z,8.75
2022-11-16T11:28:05.210Z,8.84
2022-11-16T11:30:34.309Z,8.91
2022-11-16T11:33:09.857Z,8.94
2022-11-16T11:35:38.289Z,9.02
2022-11-16T11:38:08.196Z,8.98
2022-11-16T11:40:36.837Z,9.01
2022-11-16T11:43:06.187Z,9.06
2022-11-16T11:45:57.974Z,9.07
2022-11-16T11:48:41.656Z,8.96
2022-11-16T11:51:21.451Z,9.04
2022-11-16T11:53:57.006Z,9.19
2022-11-16T11:56:26.405Z,9.28
2022-11-16T11:58:54.898Z,9.33
2022-11-16T12:01:33.245Z,9.28
2022-11-16T12:04:20.215Z,9.20
2022-11-16T12:06:54.555Z,9.23
2022-11-16T12:09:31.207Z,9.20
2022-11-16T12:12:14.675Z,9.22
2022-11-16T12:14:55.819Z,9.28
2022-11-16T12:17:33.568Z,9.40
2022-11-16T12:20:06.247Z,9.61
2022-11-16T12:22:47.376Z,9.65
2022-11-16T12:25:21.183Z,9.90
2022-11-16T12:27:55.595Z,10.60
2022-11-16T12:30:24.397Z,11.32
2022-11-16T12:33:02.295Z,11.86
2022-11-16T12:35:55.303Z,12.36
2022-11-16T12:38:26.555Z,12.71
2022-11-16T12:40:57.934Z,12.98
2022-11-16T12:43:49.574Z,13.34
2022-11-16T12:46:36.848Z,13.73
2022-11-16T12:49:28.626Z,14.32
2022-11-16T12:52:17.080Z,14.69
2022-11-16T12:55:04.312Z,14.79
2022-11-16T12:57:53.923Z,14.74
2022-11-16T13:00:22.504Z,14.92
2022-11-16T13:02:50.637Z,14.83
2022-11-16T13:05:48.651Z,15.21
2022-11-16T13:08:19.858Z,15.41
2022-11-16T13:10:51.100Z,15.33
2022-11-16T13:13:36.345Z,15.25
2022-11-16T13:16:05.781Z,15.07
2022-11-16T13:18:38.464Z,14.91
2022-11-16T13:21:22.407Z,15.12
2022-11-16T13:23:56.456Z,14.64
2022-11-16T13:26:34.376Z,14.81
2022-11-16T13:29:02.548Z,14.64
2022-11-16T13:31:38.608Z,14.38
2022-11-16T13:34:12.977Z,14.27
2022-11-16T13:36:45.544Z,14.26
2022-11-16T13:39:22.291Z,13.86
2022-11-16T13:42:05.796Z,13.39
2022-11-16T13:44:34.863Z,12.93
2022-11-16T13:47:04.998Z,12.81
2022-11-16T13:49:33.464Z,12.86
2022-11-16T13:52:22.539Z,12.67
2022-11-16T13:54:53.436Z,12.53
2022-11-16T13:57:24.920Z,12.49
2022-11-16T14:00:08.587Z,12.19
2022-11-16T14:02:38.499Z,11.87
2022-11-16T14:05:12.791Z,11.65
2022-11-16T14:07:47.447Z,11.38
2022-11-16T14:10:34.334Z,11.01
2022-11-16T14:13:06.091Z,10.57
2022-11-16T14:15:36.117Z,10.34
2022-11-16T14:18:04.488Z,9.97
2022-11-16T14:20:32.870Z,9.46
2022-11-16T14:23:19.786Z,9.21
2022-11-16T14:25:48.162Z,9.06
2022-11-16T14:28:25.962Z,8.93
2022-11-16T14:30:54.445Z,8.73
2022-11-16T14:33:30.608Z,8.54
2022-11-16T14:35:59.705Z,8.36
2022-11-16T14:38:35.460Z,8.21
2022-11-16T14:41:06.449Z,8.12
2022-11-16T14:43:39.790Z,8.00
2022-11-16T14:46:09.656Z,7.86
2022-11-16T14:48:46.045Z,7.79
2022-11-16T14:51:14.461Z,7.67
2022-11-16T14:53:47.157Z,7.60
2022-11-16T14:56:16.883Z,7.51
2022-11-16T14:58:59.324Z,7.44
2022-11-16T15:01:33.698Z,7.35
2022-11-16T15:04:03.845Z,7.28
2022-11-16T15:06:44.160Z,7.21
2022-11-16T15:09:26.205Z,7.13
2022-11-16T15:12:13.281Z,7.07
2022-11-16T15:14:46.777Z,7.05
2022-11-16T15:17:20.070Z,7.01
2022-11-16T15:19:55.722Z,6.98
2022-11-16T15:22:25.339Z,6.90
2022-11-16T15:25:00.849Z,6.87
2022-11-16T15:27:40.727Z,6.82
2022-11-16T15:30:23.292Z,6.83
2022-11-16T15:32:52.742Z,6.83
2022-11-16T15:35:23.283Z,6.85
2022-11-16T15:38:04.349Z,6.86
2022-11-16T15:40:33.305Z,6.90
2022-11-16T15:43:03.873Z,6.94
2022-11-16T15:45:33.584Z,6.96
2022-11-16T15:48:03.704Z,6.96
2022-11-16T15:50:32.291Z,6.99
2022-11-16T15:53:00.814Z,6.98
2022-11-16T15:55:34.541Z,6.96
2022-11-16T15:58:03.265Z,6.92
2022-11-16T16:00:33.486Z,6.87
2022-11-16T16:03:06.986Z,6.81
2022-11-16T16:05:37.006Z,6.76
2022-11-16T16:08:06.203Z,6.71
2022-11-16T16:10:34.973Z,6.67
2022-11-16T16:13:20.576Z,6.62
2022-11-16T16:15:49.160Z,6.54
2022-11-16T16:18:40.069Z,6.48
2022-11-16T16:21:09.360Z,6.41
2022-11-16T16:23:54.376Z,6.36
2022-11-16T16:26:23.535Z,6.28
2022-11-16T16:28:52.328Z,6.23
2022-11-16T16:31:20.810Z,6.19
2022-11-16T16:33:49.804Z,6.13
2022-11-16T16:36:18.180Z,6.07
2022-11-16T16:38:46.745Z,6.00
2022-11-16T16:41:23.816Z,5.95
2022-11-16T16:43:53.216Z,5.90
2022-11-16T16:46:22.349Z,5.83
2022-11-16T16:48:50.728Z,5.77
2022-11-16T16:51:19.420Z,5.71
2022-11-16T16:53:47.998Z,5.69
2022-11-16T16:56:17.094Z,5.64
2022-11-16T16:58:45.781Z,5.63
2022-11-16T17:01:14.945Z,5.62
2022-11-16T17:03:43.770Z,5.61
2022-11-16T17:06:12.355Z,5.62
2022-11-16T17:08:40.837Z,5.62
2022-11-16T17:11:10.434Z,5.61
2022-11-16T17:13:38.926Z,5.61
2022-11-16T17:16:07.715Z,5.63
2022-11-16T17:18:36.298Z,5.65
2022-11-16T17:21:09.355Z,5.68
2022-11-16T17:23:37.898Z,5.69
2022-11-16T17:26:07.793Z,5.68
2022-11-16T17:28:36.268Z,5.67
2022-11-16T17:31:05.637Z,5.66
2022-11-16T17:33:52.997Z,5.64
2022-11-16T17:36:21.272Z,5.63
2022-11-16T17:38:50.067Z,5.64
2022-11-16T17:41:19.555Z,5.63
2022-11-16T17:44:27.690Z,5.64
2022-11-16T17:47:33.567Z,5.63
2022-11-16T17:50:02.225Z,5.62
2022-11-16T17:52:30.809Z,5.61
2022-11-16T17:54:59.188Z,5.58
2022-11-16T17:57:27.465Z,5.54
2022-11-16T17:59:56.254Z,5.52
2022-11-16T18:02:25.045Z,5.50
2022-11-16T18:04:53.328Z,5.48
2022-11-16T18:07:22.167Z,5.47
2022-11-16T18:09:50.592Z,5.49
2022-11-16T18:12:58.967Z,5.51
2022-11-16T18:16:07.132Z,5.52
2022-11-16T18:18:35.605Z,5.54
2022-11-16T18:21:04.713Z,5.57
2022-11-16T18:23:33.959Z,5.60
2022-11-16T18:26:08.184Z,5.60
2022-11-16T18:28:37.110Z,5.60
2022-11-16T18:31:10.834Z,5.60
2022-11-16T18:33:39.713Z,5.62
2022-11-16T18:36:08.662Z,5.64
2022-11-16T18:38:37.831Z,5.67
2022-11-16T18:41:12.022Z,5.69
2022-11-16T18:43:41.182Z,5.71
2022-11-16T18:46:09.695Z,5.73
2022-11-16T18:48:38.277Z,5.76
2022-11-16T18:51:06.861Z,5.76
2022-11-16T18:53:35.531Z,5.77
2022-11-16T18:56:44.478Z,5.79
2022-11-16T18:59:52.819Z,5.79
2022-11-16T19:03:01.217Z,5.77
2022-11-16T19:06:09.260Z,5.76
2022-11-16T19:08:39.044Z,5.72
2022-11-16T19:11:08.488Z,5.71
2022-11-16T19:13:37.152Z,5.71
2022-11-16T19:16:06.497Z,5.72
2022-11-16T19:18:35.583Z,5.77
2022-11-16T19:21:05.028Z,5.84
2022-11-16T19:23:43.913Z,5.86
2022-11-16T19:26:16.328Z,5.87
2022-11-16T19:28:45.936Z,5.83
2022-11-16T19:31:19.442Z,5.82
2022-11-16T19:33:48.289Z,5.82
2022-11-16T19:36:17.935Z,5.82
2022-11-16T19:38:47.031Z,5.83
2022-11-16T19:41:16.450Z,5.82
2022-11-16T19:43:44.794Z,5.80
2022-11-16T19:46:16.813Z,5.80
2022-11-16T19:48:46.285Z,5.83
2022-11-16T19:51:19.276Z,5.86
2022-11-16T19:53:48.132Z,5.87
2022-11-16T19:56:17.696Z,5.87
2022-11-16T19:58:45.954Z,5.87
2022-11-16T20:01:19.304Z,5.82
2022-11-16T20:03:48.337Z,5.74
2022-11-16T20:06:21.733Z,5.67
2022-11-16T20:08:54.312Z,5.65
2022-11-16T20:11:24.434Z,5.64
2022-11-16T20:13:53.845Z,5.64
2022-11-16T20:16:23.749Z,5.65
2022-11-16T20:18:53.465Z,5.64
2022-11-16T20:21:23.355Z,5.64
2022-11-16T20:23:52.398Z,5.66
2022-11-16T20:26:21.363Z,5.66
2022-11-16T20:28:53.530Z,5.66
2022-11-16T20:31:23.547Z,5.66
2022-11-16T20:33:53.438Z,5.67
2022-11-16T20:36:23.073Z,5.67
2022-11-16T20:38:52.783Z,5.69
2022-11-16T20:41:22.665Z,5.68
2022-11-16T20:43:52.614Z,5.68
2022-11-16T20:46:22.229Z,5.67
2022-11-16T20:48:50.909Z,5.68
2022-11-16T20:51:20.210Z,5.68
2022-11-16T20:53:49.723Z,5.69
2022-11-16T20:56:19.796Z,5.72
2022-11-16T20:58:48.730Z,5.75
2022-11-16T21:01:33.560Z,5.79
2022-11-16T21:04:04.408Z,5.83
2022-11-16T21:06:33.120Z,5.88
2022-11-16T21:09:01.806Z,5.93
2022-11-16T21:11:31.027Z,5.98
2022-11-16T21:14:17.917Z,6.02
2022-11-16T21:16:46.399Z,6.09
2022-11-16T21:19:14.982Z,6.14
2022-11-16T21:21:43.467Z,6.22
2022-11-16T21:24:12.151Z,6.30
2022-11-16T21:26:40.940Z,6.36
2022-11-16T21:29:09.482Z,6.41
2022-11-16T21:31:37.906Z,6.46
2022-11-16T21:34:07.620Z,6.51
2022-11-16T21:36:36.678Z,6.55
2022-11-16T21:39:05.193Z,6.56
2022-11-16T21:41:34.189Z,6.56
2022-11-16T21:44:02.975Z,6.55
2022-11-16T21:46:31.277Z,6.56
2022-11-16T21:48:59.740Z,6.63
2022-11-16T21:51:28.525Z,6.71
2022-11-16T21:53:56.913Z,6.79
2022-11-16T21:56:26.217Z,6.89
2022-11-16T21:58:54.890Z,6.95
2022-11-16T22:01:24.487Z,7.01
2022-11-16T22:04:12.030Z,7.08
2022-11-16T22:06:59.368Z,7.14
2022-11-16T22:09:28.552Z,7.19
2022-11-16T22:11:59.873Z,7.21
2022-11-16T22:14:33.068Z,7.21
2022-11-16T22:17:01.681Z,7.20
2022-11-16T22:19:30.109Z,7.23
2022-11-16T22:21:59.970Z,7.27
2022-11-16T22:24:28.381Z,7.22
2022-11-16T22:26:56.935Z,7.12
2022-11-16T22:29:25.621Z,7.03
2022-11-16T22:31:53.898Z,6.94
2022-11-16T22:34:22.483Z,6.92
2022-11-16T22:36:51.272Z,6.94
2022-11-16T22:39:19.861Z,6.99
2022-11-16T22:41:48.169Z,7.04
2022-11-16T22:44:17.024Z,7.06
2022-11-16T22:46:45.301Z,7.12
2022-11-16T22:49:13.684Z,7.18
2022-11-16T22:51:42.676Z,7.23
2022-11-16T22:54:11.745Z,7.24
2022-11-16T22:56:40.056Z,7.26
2022-11-16T22:59:10.132Z,7.30
2022-11-16T23:01:38.651Z,7.36
2022-11-16T23:04:07.032Z,7.41
2022-11-16T23:06:35.925Z,7.42
2022-11-16T23:09:04.609Z,7.40
2022-11-16T23:11:51.627Z,7.36
2022-11-16T23:14:39.053Z,7.28
2022-11-16T23:17:07.740Z,7.24
2022-11-16T23:19:54.653Z,7.20
2022-11-16T23:22:42.386Z,7.20
2022-11-16T23:25:30.429Z,7.21
2022-11-16T23:28:02.390Z,7.21
2022-11-16T23:30:30.880Z,7.21
2022-11-16T23:32:59.355Z,7.21
2022-11-16T23:35:27.632Z,7.20
2022-11-16T23:38:00.385Z,7.21
2022-11-16T23:40:30.331Z,7.23
2022-11-16T23:43:17.861Z,7.23
2022-11-16T23:45:46.603Z,7.25
2022-11-16T23:48:16.055Z,7.24
2022-11-16T23:50:45.353Z,7.24
2022-11-16T23:53:14.552Z,7.23
2022-11-16T23:55:43.145Z,7.24
2022-11-16T23:58:15.172Z,7.24
